^^
Grace C. Lehan Memorial Weather Station Historical Data
Daily Summary for September 25, 2022 Units:  Both    English   Metric
Daily Weekly Monthly Yearly
  High: Low: Average:
Temperature: 52.2 °F /  11.2 °C 40.6 °F /  4.8 °C 46.2 °F /  7.9 °C
Dew Point: 48.4 °F /  9.1 °C 30.5 °F /  -0.8 °C 40.7 °F /  4.8 °C
Humidity: 93% 61% 82%
Wind Speed: 17.3mph /  27.8km/h - 3.2mph /  5.1km/h
Wind Gust: 31mph /  49.9km/h - -
Wind- - West
Pressure: 30.13 in /  1020.2 hPa 29.67 in /  1004.6 hPa -
Precipitation: 0.02 in /  0.51 mm    
 
 
Tabular Data for September 25, 2022
Time Temperature Dew Point Pressure Wind Wind Speed Wind Gust Humidity Rainfall Rate (Hourly) solar
00:04 41.1 °F /  5.1 °C 38.4 °F /  3.6 °C 30.13in /  1020.2hPa Calm     90% 0.00in /  0mm 0 W/m2
00:09 41.1 °F /  5.1 °C 38.4 °F /  3.6 °C 30.13in /  1020.2hPa Calm     90% 0.00in /  0mm 0 W/m2
00:14 41.3 °F /  5.2 °C 38.8 °F /  3.8 °C 30.12in /  1019.9hPa Calm     91% 0.00in /  0mm 0 W/m2
00:19 41.4 °F /  5.2 °C 39 °F /  3.9 °C 30.12in /  1019.9hPa Calm     91% 0.00in /  0mm 0 W/m2
00:24 41.4 °F /  5.2 °C 39 °F /  3.9 °C 30.12in /  1019.9hPa Calm     91% 0.00in /  0mm 0 W/m2
00:29 41.4 °F /  5.2 °C 38.9 °F /  3.8 °C 30.12in /  1019.9hPa Calm     90.8% 0.00in /  0mm 0 W/m2
00:34 41.3 °F /  5.2 °C 38.7 °F /  3.7 °C 30.12in /  1019.9hPa Calm     90.4% 0.00in /  0mm 0 W/m2
00:39 41.2 °F /  5.1 °C 38.8 °F /  3.8 °C 30.12in /  1019.9hPa Calm     91% 0.00in /  0mm 0 W/m2
00:44 41.1 °F /  5.1 °C 38.7 °F /  3.7 °C 30.11in /  1019.5hPa Calm     91% 0.00in /  0mm 0 W/m2
00:49 41 °F /  5 °C 38.6 °F /  3.7 °C 30.11in /  1019.5hPa Calm     91% 0.00in /  0mm 0 W/m2
00:54 41 °F /  5 °C 38.6 °F /  3.7 °C 30.11in /  1019.5hPa Calm     91% 0.00in /  0mm 0 W/m2
00:59 40.9 °F /  4.9 °C 38.5 °F /  3.6 °C 30.11in /  1019.5hPa Calm     91% 0.00in /  0mm 0 W/m2
01:04 40.9 °F /  4.9 °C 38.4 °F /  3.6 °C 30.11in /  1019.5hPa Calm     91% 0.00in /  0mm 0 W/m2
01:09 40.7 °F /  4.8 °C 38.3 °F /  3.5 °C 30.11in /  1019.5hPa Calm     91% 0.00in /  0mm 0 W/m2
01:14 40.6 °F /  4.8 °C 38.2 °F /  3.4 °C 30.11in /  1019.5hPa Calm     91% 0.00in /  0mm 0 W/m2
01:19 40.6 °F /  4.8 °C 38.2 °F /  3.4 °C 30.11in /  1019.5hPa Calm     91% 0.00in /  0mm 0 W/m2
01:24 40.6 °F /  4.8 °C 38.2 °F /  3.4 °C 30.11in /  1019.5hPa Calm     91% 0.00in /  0mm 0 W/m2
01:29 40.6 °F /  4.8 °C 38.4 °F /  3.6 °C 30.10in /  1019.2hPa Calm     91.9% 0.00in /  0mm 0 W/m2
01:34 40.7 °F /  4.8 °C 38.5 °F /  3.6 °C 30.10in /  1019.2hPa Calm     92% 0.00in /  0mm 0 W/m2
01:39 40.7 °F /  4.8 °C 38.6 °F /  3.7 °C 30.11in /  1019.5hPa Calm     92% 0.00in /  0mm 0 W/m2
01:44 40.7 °F /  4.8 °C 38.6 °F /  3.7 °C 30.11in /  1019.5hPa Calm     92% 0.00in /  0mm 0 W/m2
01:49 40.8 °F /  4.9 °C 38.6 °F /  3.7 °C 30.10in /  1019.2hPa Calm     92% 0.00in /  0mm 0 W/m2
01:54 40.8 °F /  4.9 °C 38.7 °F /  3.7 °C 30.11in /  1019.5hPa Calm     92% 0.00in /  0mm 0 W/m2
01:59 41 °F /  5 °C 38.9 °F /  3.8 °C 30.10in /  1019.2hPa Calm     92.1% 0.00in /  0mm 0 W/m2
02:04 41.2 °F /  5.1 °C 39.4 °F /  4.1 °C 30.10in /  1019.2hPa Calm     93% 0.00in /  0mm 0 W/m2
02:09 41.3 °F /  5.2 °C 39.4 °F /  4.1 °C 30.10in /  1019.2hPa Calm     92.8% 0.00in /  0mm 0 W/m2
02:14 41.4 °F /  5.2 °C 39.5 °F /  4.2 °C 30.09in /  1018.8hPa Calm     92.9% 0.00in /  0mm 0 W/m2
02:19 41.7 °F /  5.4 °C 39.8 °F /  4.3 °C 30.09in /  1018.8hPa Calm     93% 0.00in /  0mm 0 W/m2
02:24 41.9 °F /  5.5 °C 40 °F /  4.4 °C 30.08in /  1018.5hPa Calm     93% 0.00in /  0mm 0 W/m2
02:29 42 °F /  5.6 °C 40.1 °F /  4.5 °C 30.08in /  1018.5hPa Calm     93% 0.00in /  0mm 0 W/m2
02:34 41.9 °F /  5.5 °C 39.8 °F /  4.3 °C 30.08in /  1018.5hPa Calm     92.2% 0.00in /  0mm 0 W/m2
02:39 41.7 °F /  5.4 °C 39.6 °F /  4.2 °C 30.08in /  1018.5hPa Calm     92% 0.00in /  0mm 0 W/m2
02:44 41.7 °F /  5.4 °C 39.5 °F /  4.2 °C 30.08in /  1018.5hPa Calm     92% 0.00in /  0mm 0 W/m2
02:49 41.8 °F /  5.4 °C 39.8 °F /  4.3 °C 30.08in /  1018.5hPa Calm     92.9% 0.00in /  0mm 0 W/m2
02:54 41.9 °F /  5.5 °C 40 °F /  4.4 °C 30.07in /  1018.2hPa Calm     93% 0.00in /  0mm 0 W/m2
02:59 42 °F /  5.6 °C 40.1 °F /  4.5 °C 30.07in /  1018.2hPa Calm     93% 0.00in /  0mm 0 W/m2
03:04 42.1 °F /  5.6 °C 40.3 °F /  4.6 °C 30.07in /  1018.2hPa SSW 0.3mph /  0.5km/h 3mph /  4.8km/h 93% 0.00in /  0mm 0 W/m2
03:09 42.3 °F /  5.7 °C 40.4 °F /  4.7 °C 30.06in /  1017.8hPa SSW 0.1mph /  0.2km/h 3mph /  4.8km/h 93% 0.00in /  0mm 0 W/m2
03:14 42.4 °F /  5.8 °C 40.5 °F /  4.7 °C 30.05in /  1017.5hPa Calm   3mph /  4.8km/h 93% 0.00in /  0mm 0 W/m2
03:19 42.5 °F /  5.8 °C 40.6 °F /  4.8 °C 30.06in /  1017.8hPa Calm   3mph /  4.8km/h 93% 0.00in /  0mm 0 W/m2
03:24 42.4 °F /  5.8 °C 40.4 °F /  4.7 °C 30.05in /  1017.5hPa Calm   3mph /  4.8km/h 92.5% 0.00in /  0mm 0 W/m2
03:29 42.4 °F /  5.8 °C 40.2 °F /  4.6 °C 30.05in /  1017.5hPa Calm   3mph /  4.8km/h 92% 0.00in /  0mm 0 W/m2
03:34 42.3 °F /  5.7 °C 40.1 °F /  4.5 °C 30.04in /  1017.2hPa Calm   3mph /  4.8km/h 92% 0.00in /  0mm 0 W/m2
03:39 42.1 °F /  5.6 °C 40 °F /  4.4 °C 30.04in /  1017.2hPa Calm     92% 0.00in /  0mm 0 W/m2
03:44 42.1 °F /  5.6 °C 40 °F /  4.4 °C 30.03in /  1016.8hPa Calm     92% 0.00in /  0mm 0 W/m2
03:49 42.1 °F /  5.6 °C 40 °F /  4.4 °C 30.03in /  1016.8hPa Calm     92% 0.00in /  0mm 0 W/m2
03:54 42.2 °F /  5.7 °C 40 °F /  4.4 °C 30.03in /  1016.8hPa Calm     92% 0.00in /  0mm 0 W/m2
03:59 42.3 °F /  5.7 °C 40.1 °F /  4.5 °C 30.03in /  1016.8hPa Calm     92% 0.00in /  0mm 0 W/m2
04:00 42.3 °F /  5.7 °C 40.2 °F /  4.6 °C 30.02in /  1016.5hPa Calm     92% 0.00in /  0mm 0 W/m2
04:09 42.5 °F /  5.8 °C 40.4 °F /  4.7 °C 30.02in /  1016.5hPa Calm     92% 0.00in /  0mm 0 W/m2
04:14 42.7 °F /  5.9 °C 40.5 °F /  4.7 °C 30.01in /  1016.1hPa Calm     92% 0.00in /  0mm 0 W/m2
04:19 42.8 °F /  6 °C 40.6 °F /  4.8 °C 30.01in /  1016.1hPa Calm     92% 0.00in /  0mm 0 W/m2
04:24 42.8 °F /  6 °C 40.7 °F /  4.8 °C 30.01in /  1016.1hPa Calm     92% 0.00in /  0mm 0 W/m2
04:29 42.9 °F /  6.1 °C 40.7 °F /  4.8 °C 30.01in /  1016.1hPa Calm     92% 0.00in /  0mm 0 W/m2
04:34 42.9 °F /  6.1 °C 40.7 °F /  4.8 °C 30.01in /  1016.1hPa Calm     92% 0.00in /  0mm 0 W/m2
04:39 42.9 °F /  6.1 °C 40.7 °F /  4.8 °C 30.01in /  1016.1hPa Calm     92% 0.00in /  0mm 0 W/m2
04:44 42.9 °F /  6.1 °C 40.6 °F /  4.8 °C 30.00in /  1015.8hPa Calm     91.4% 0.00in /  0mm 0 W/m2
04:49 42.9 °F /  6.1 °C 40.4 °F /  4.7 °C 30.00in /  1015.8hPa Calm     91% 0.00in /  0mm 0 W/m2
04:54 42.9 °F /  6.1 °C 40.8 °F /  4.9 °C 30.00in /  1015.8hPa Calm     91.9% 0.00in /  0mm 0 W/m2
04:59 43.1 °F /  6.2 °C 40.9 °F /  4.9 °C 29.99in /  1015.5hPa Calm     92% 0.00in /  0mm 0 W/m2
05:04 43.3 °F /  6.3 °C 41.1 °F /  5.1 °C 29.99in /  1015.5hPa Calm     92% 0.00in /  0mm 0 W/m2
05:09 43.5 °F /  6.4 °C 41.3 °F /  5.2 °C 29.98in /  1015.1hPa Calm   2mph /  3.2km/h 92% 0.00in /  0mm 0 W/m2
05:14 43.8 °F /  6.6 °C 41.6 °F /  5.3 °C 29.98in /  1015.1hPa Calm   2mph /  3.2km/h 92% 0.00in /  0mm 0 W/m2
05:19 44 °F /  6.7 °C 41.6 °F /  5.3 °C 29.98in /  1015.1hPa SSW 0.3mph /  0.5km/h 4mph /  6.4km/h 91.2% 0.00in /  0mm 0 W/m2
05:24 44.1 °F /  6.7 °C 41.7 °F /  5.4 °C 29.98in /  1015.1hPa SSW 0.1mph /  0.2km/h 4mph /  6.4km/h 91% 0.00in /  0mm 0 W/m2
05:29 44.3 °F /  6.8 °C 41.8 °F /  5.4 °C 29.97in /  1014.8hPa SSW 0.5mph /  0.8km/h 4mph /  6.4km/h 91% 0.00in /  0mm 0 W/m2
05:34 44.5 °F /  6.9 °C 42 °F /  5.6 °C 29.97in /  1014.8hPa SW 0.3mph /  0.5km/h 4mph /  6.4km/h 91% 0.00in /  0mm 0 W/m2
05:39 44.7 °F /  7.1 °C 42.1 °F /  5.6 °C 29.96in /  1014.4hPa Calm   4mph /  6.4km/h 90.5% 0.00in /  0mm 0 W/m2
05:44 44.9 °F /  7.2 °C 42.2 °F /  5.7 °C 29.96in /  1014.4hPa SW 0.8mph /  1.3km/h 5mph /  8km/h 90% 0.00in /  0mm 0 W/m2
05:49 45.1 °F /  7.3 °C 42.3 °F /  5.7 °C 29.96in /  1014.4hPa SW 0.1mph /  0.2km/h 5mph /  8km/h 89.9% 0.00in /  0mm 0 W/m2
05:54 45.3 °F /  7.4 °C 42.3 °F /  5.7 °C 29.96in /  1014.4hPa SW 0.6mph /  1km/h 5mph /  8km/h 89% 0.00in /  0mm 0 W/m2
05:59 45.5 °F /  7.5 °C 42.4 °F /  5.8 °C 29.95in /  1014.1hPa SW 0.6mph /  1km/h 5mph /  8km/h 88.7% 0.00in /  0mm 0 W/m2
06:04 45.7 °F /  7.6 °C 42.4 °F /  5.8 °C 29.96in /  1014.4hPa SW 0.5mph /  0.8km/h 5mph /  8km/h 88.1% 0.00in /  0mm 0 W/m2
06:09 45.8 °F /  7.7 °C 42.4 °F /  5.8 °C 29.96in /  1014.4hPa SW 0.3mph /  0.5km/h 5mph /  8km/h 88% 0.00in /  0mm 0 W/m2
06:14 45.9 °F /  7.7 °C 42.3 °F /  5.7 °C 29.96in /  1014.4hPa Calm   5mph /  8km/h 87.2% 0.00in /  0mm 0 W/m2
06:19 45.9 °F /  7.7 °C 42.3 °F /  5.7 °C 29.95in /  1014.1hPa Calm   5mph /  8km/h 87% 0.00in /  0mm 0 W/m2
06:24 46 °F /  7.8 °C 42.3 °F /  5.7 °C 29.95in /  1014.1hPa Calm   5mph /  8km/h 87% 0.00in /  0mm 0 W/m2
06:29 46 °F /  7.8 °C 42.1 °F /  5.6 °C 29.95in /  1014.1hPa SW 0.2mph /  0.3km/h 5mph /  8km/h 86.2% 0.00in /  0mm 0 W/m2
06:34 46.1 °F /  7.8 °C 42.1 °F /  5.6 °C 29.94in /  1013.8hPa Calm   5mph /  8km/h 86% 0.00in /  0mm 0 W/m2
06:39 46.1 °F /  7.8 °C 42.2 °F /  5.7 °C 29.94in /  1013.8hPa SW 0.3mph /  0.5km/h 2mph /  3.2km/h 86% 0.00in /  0mm 0 W/m2
06:44 46.1 °F /  7.8 °C 42.2 °F /  5.7 °C 29.94in /  1013.8hPa SW 0.5mph /  0.8km/h 3mph /  4.8km/h 86% 0.00in /  0mm 0 W/m2
06:49 46.2 °F /  7.9 °C 42.3 °F /  5.7 °C 29.94in /  1013.8hPa SW 0.2mph /  0.3km/h 3mph /  4.8km/h 86% 0.00in /  0mm 0 W/m2
06:54 46.3 °F /  7.9 °C 42.3 °F /  5.7 °C 29.94in /  1013.8hPa SW 0.4mph /  0.6km/h 3mph /  4.8km/h 86% 0.00in /  0mm 0 W/m2
06:59 46.3 °F /  7.9 °C 42.5 °F /  5.8 °C 29.94in /  1013.8hPa Calm   3mph /  4.8km/h 86.6% 0.00in /  0mm 0 W/m2
07:04 46.4 °F /  8 °C 42.7 °F /  5.9 °C 29.94in /  1013.8hPa Calm   3mph /  4.8km/h 87% 0.00in /  0mm 0 W/m2
07:09 46.4 °F /  8 °C 42.8 °F /  6 °C 29.94in /  1013.8hPa SW 0.3mph /  0.5km/h 5mph /  8km/h 87% 0.00in /  0mm 0 W/m2
07:14 46.5 °F /  8.1 °C 42.8 °F /  6 °C 29.94in /  1013.8hPa SW 0.4mph /  0.6km/h 5mph /  8km/h 87% 0.00in /  0mm 0 W/m2
07:19 46.6 °F /  8.1 °C 42.9 °F /  6.1 °C 29.93in /  1013.4hPa SW 0.1mph /  0.2km/h 5mph /  8km/h 87% 0.00in /  0mm 5 W/m2
07:24 46.7 °F /  8.2 °C 43 °F /  6.1 °C 29.93in /  1013.4hPa SW 0.1mph /  0.2km/h 5mph /  8km/h 87% 0.00in /  0mm 5 W/m2
07:29 46.8 °F /  8.2 °C 43.2 °F /  6.2 °C 29.93in /  1013.4hPa SW 0.1mph /  0.2km/h 5mph /  8km/h 87% 0.00in /  0mm 7 W/m2
07:34 47 °F /  8.3 °C 43.3 °F /  6.3 °C 29.93in /  1013.4hPa Calm   5mph /  8km/h 87% 0.00in /  0mm 9 W/m2
07:39 47.1 °F /  8.4 °C 43.5 °F /  6.4 °C 29.92in /  1013.1hPa Calm   2mph /  3.2km/h 87% 0.00in /  0mm 11 W/m2
07:44 47.3 °F /  8.5 °C 43.6 °F /  6.4 °C 29.91in /  1012.8hPa SW 0.1mph /  0.2km/h 4mph /  6.4km/h 87% 0.00in /  0mm 11 W/m2
07:49 47.4 °F /  8.6 °C 43.8 °F /  6.6 °C 29.91in /  1012.8hPa SW 0.5mph /  0.8km/h 4mph /  6.4km/h 87% 0.00in /  0mm 11 W/m2
07:54 47.6 °F /  8.7 °C 43.9 °F /  6.6 °C 29.91in /  1012.8hPa Calm   4mph /  6.4km/h 87% 0.00in /  0mm 9 W/m2
07:59 47.6 °F /  8.7 °C 43.9 °F /  6.6 °C 29.90in /  1012.4hPa Calm   4mph /  6.4km/h 87% 0.00in /  0mm 11 W/m2
08:00 47.6 °F /  8.7 °C 43.9 °F /  6.6 °C 29.90in /  1012.4hPa Calm   4mph /  6.4km/h 87% 0.00in /  0mm 11 W/m2
08:09 47.6 °F /  8.7 °C 43.9 °F /  6.6 °C 29.90in /  1012.4hPa Calm     87% 0.00in /  0mm 16 W/m2
08:14 47.6 °F /  8.7 °C 43.9 °F /  6.6 °C 29.90in /  1012.4hPa Calm     87% 0.00in /  0mm 19 W/m2
08:19 47.6 °F /  8.7 °C 43.9 °F /  6.6 °C 29.89in /  1012.1hPa SW 0.4mph /  0.6km/h 3mph /  4.8km/h 87% 0.00in /  0mm 25 W/m2
08:24 47.7 °F /  8.7 °C 44.2 °F /  6.8 °C 29.89in /  1012.1hPa SW 0.4mph /  0.6km/h 3mph /  4.8km/h 87.8% 0.00in /  0mm 35 W/m2
08:29 47.7 °F /  8.7 °C 44.3 °F /  6.8 °C 29.88in /  1011.7hPa SW 0.2mph /  0.3km/h 3mph /  4.8km/h 88% 0.00in /  0mm 39 W/m2
08:34 47.7 °F /  8.7 °C 44.4 °F /  6.9 °C 29.88in /  1011.7hPa SW 0.1mph /  0.2km/h 3mph /  4.8km/h 88% 0.00in /  0mm 40 W/m2
08:39 47.8 °F /  8.8 °C 44.4 °F /  6.9 °C 29.87in /  1011.4hPa Calm   3mph /  4.8km/h 88% 0.00in /  0mm 40 W/m2
08:44 47.8 °F /  8.8 °C 44.4 °F /  6.9 °C 29.87in /  1011.4hPa Calm   3mph /  4.8km/h 88% 0.00in /  0mm 35 W/m2
08:49 47.8 °F /  8.8 °C 44.5 °F /  6.9 °C 29.87in /  1011.4hPa SW 0.1mph /  0.2km/h 3mph /  4.8km/h 88% 0.00in /  0mm 39 W/m2
08:54 47.9 °F /  8.8 °C 44.5 °F /  6.9 °C 29.87in /  1011.4hPa Calm   3mph /  4.8km/h 88% 0.00in /  0mm 42 W/m2
08:59 47.9 °F /  8.8 °C 44.7 °F /  7.1 °C 29.86in /  1011.1hPa Calm   3mph /  4.8km/h 88.8% 0.00in /  0mm 39 W/m2
09:04 47.9 °F /  8.8 °C 44.8 °F /  7.1 °C 29.86in /  1011.1hPa Calm   3mph /  4.8km/h 89% 0.00in /  0mm 33 W/m2
09:09 47.9 °F /  8.8 °C 44.8 °F /  7.1 °C 29.86in /  1011.1hPa SW 0.3mph /  0.5km/h 5mph /  8km/h 89% 0.00in /  0mm 23 W/m2
09:14 47.9 °F /  8.8 °C 44.8 °F /  7.1 °C 29.86in /  1011.1hPa Calm   5mph /  8km/h 89% 0.00in /  0mm 19 W/m2
09:19 47.9 °F /  8.8 °C 44.8 °F /  7.1 °C 29.85in /  1010.7hPa SW 0.1mph /  0.2km/h 5mph /  8km/h 89% 0.00in /  0mm 25 W/m2
09:24 47.9 °F /  8.8 °C 44.9 °F /  7.2 °C 29.85in /  1010.7hPa Calm   5mph /  8km/h 89% 0.00in /  0mm 25 W/m2
09:29 48 °F /  8.9 °C 44.9 °F /  7.2 °C 29.85in /  1010.7hPa Calm   5mph /  8km/h 89% 0.00in /  0mm 32 W/m2
09:34 48.1 °F /  8.9 °C 45 °F /  7.2 °C 29.85in /  1010.7hPa Calm   5mph /  8km/h 89% 0.00in /  0mm 35 W/m2
09:39 48.1 °F /  8.9 °C 45.1 °F /  7.3 °C 29.85in /  1010.7hPa Calm     89.4% 0.00in /  0mm 84 W/m2
09:44 48.2 °F /  9 °C 45.4 °F /  7.4 °C 29.84in /  1010.4hPa Calm     90% 0.00in /  0mm 105 W/m2
09:49 48.4 °F /  9.1 °C 45.6 °F /  7.6 °C 29.83in /  1010hPa Calm     90% 0.00in /  0mm 120 W/m2
09:54 48.5 °F /  9.2 °C 45.7 °F /  7.6 °C 29.83in /  1010hPa SW 0.1mph /  0.2km/h 3mph /  4.8km/h 90% 0.00in /  0mm 77 W/m2
09:59 48.7 °F /  9.3 °C 45.9 °F /  7.7 °C 29.82in /  1009.7hPa Calm   3mph /  4.8km/h 90% 0.00in /  0mm 76 W/m2
10:04 48.8 °F /  9.3 °C 46 °F /  7.8 °C 29.82in /  1009.7hPa SW 0.4mph /  0.6km/h 3mph /  4.8km/h 90% 0.00in /  0mm 104 W/m2
10:09 48.9 °F /  9.4 °C 46.1 °F /  7.8 °C 29.82in /  1009.7hPa SW 0.4mph /  0.6km/h 3mph /  4.8km/h 90% 0.00in /  0mm 113 W/m2
10:14 49 °F /  9.4 °C 46.2 °F /  7.9 °C 29.81in /  1009.4hPa SW 0.3mph /  0.5km/h 3mph /  4.8km/h 90% 0.00in /  0mm 105 W/m2
10:19 49.1 °F /  9.5 °C 46.3 °F /  7.9 °C 29.81in /  1009.4hPa Calm   3mph /  4.8km/h 90% 0.00in /  0mm 44 W/m2
10:24 49.1 °F /  9.5 °C 46.3 °F /  7.9 °C 29.80in /  1009hPa Calm   3mph /  4.8km/h 90% 0.00in /  0mm 49 W/m2
10:29 49.2 °F /  9.6 °C 46.4 °F /  8 °C 29.80in /  1009hPa Calm   3mph /  4.8km/h 90% 0.00in /  0mm 49 W/m2
10:34 49.2 °F /  9.6 °C 46.6 °F /  8.1 °C 29.80in /  1009hPa SW 0.1mph /  0.2km/h 3mph /  4.8km/h 90.7% 0.00in /  0mm 70 W/m2
10:39 49.3 °F /  9.6 °C 46.7 °F /  8.2 °C 29.80in /  1009hPa Calm   2mph /  3.2km/h 91% 0.00in /  0mm 70 W/m2
10:44 49.3 °F /  9.6 °C 46.8 °F /  8.2 °C 29.79in /  1008.7hPa Calm   2mph /  3.2km/h 91% 0.00in /  0mm 58 W/m2
10:49 49.4 °F /  9.7 °C 46.9 °F /  8.3 °C 29.79in /  1008.7hPa SW 0.1mph /  0.2km/h 2mph /  3.2km/h 91% 0.00in /  0mm 72 W/m2
10:54 49.5 °F /  9.7 °C 47 °F /  8.3 °C 29.78in /  1008.4hPa SW 0.1mph /  0.2km/h 3mph /  4.8km/h 91% 0.00in /  0mm 88 W/m2
10:59 49.6 °F /  9.8 °C 46.9 °F /  8.3 °C 29.77in /  1008hPa SW 1.5mph /  2.4km/h 7mph /  11.3km/h 90.5% 0.00in /  0mm 83 W/m2
11:04 49.7 °F /  9.8 °C 47 °F /  8.3 °C 29.77in /  1008hPa SW 2.3mph /  3.7km/h 7mph /  11.3km/h 90.1% 0.00in /  0mm 102 W/m2
11:09 49.9 °F /  9.9 °C 47.1 °F /  8.4 °C 29.77in /  1008hPa SW 0.6mph /  1km/h 7mph /  11.3km/h 90% 0.00in /  0mm 88 W/m2
11:14 50.1 °F /  10.1 °C 47.3 °F /  8.5 °C 29.76in /  1007.7hPa SW 1.2mph /  1.9km/h 7mph /  11.3km/h 89.9% 0.00in /  0mm 102 W/m2
11:19 50.2 °F /  10.1 °C 47.1 °F /  8.4 °C 29.76in /  1007.7hPa SW 0.8mph /  1.3km/h 7mph /  11.3km/h 89% 0.00in /  0mm 95 W/m2
11:24 50.3 °F /  10.2 °C 47.2 °F /  8.4 °C 29.75in /  1007.3hPa SW 1.6mph /  2.6km/h 7mph /  11.3km/h 89% 0.00in /  0mm 56 W/m2
11:29 50.3 °F /  10.2 °C 46.9 °F /  8.3 °C 29.75in /  1007.3hPa SW 1.2mph /  1.9km/h 7mph /  11.3km/h 88% 0.00in /  0mm 62 W/m2
11:34 50.2 °F /  10.1 °C 46.8 °F /  8.2 °C 29.75in /  1007.3hPa SW 1.2mph /  1.9km/h 7mph /  11.3km/h 88% 0.00in /  0mm 62 W/m2
11:39 50.2 °F /  10.1 °C 46.8 °F /  8.2 °C 29.74in /  1007hPa SW 1.5mph /  2.4km/h 7mph /  11.3km/h 88% 0.00in /  0mm 33 W/m2
11:44 50.2 °F /  10.1 °C 46.8 °F /  8.2 °C 29.75in /  1007.3hPa SW 1.2mph /  1.9km/h 7mph /  11.3km/h 88% 0.00in /  0mm 30 W/m2
11:49 50.1 °F /  10.1 °C 46.7 °F /  8.2 °C 29.75in /  1007.3hPa WSW 0.8mph /  1.3km/h 11mph /  17.7km/h 88% 0.01in /  0.25mm 19 W/m2
11:54 50.1 °F /  10.1 °C 46.8 °F /  8.2 °C 29.74in /  1007hPa WSW 1mph /  1.6km/h 11mph /  17.7km/h 88.5% 0.01in /  0.25mm 23 W/m2
11:59 50 °F /  10 °C 46.9 °F /  8.3 °C 29.74in /  1007hPa WSW 1.2mph /  1.9km/h 11mph /  17.7km/h 89% 0.01in /  0.25mm 42 W/m2
12:00 49.9 °F /  9.9 °C 46.8 °F /  8.2 °C 29.73in /  1006.7hPa Calm   11mph /  17.7km/h 89% 0.01in /  0.25mm 40 W/m2
12:09 49.7 °F /  9.8 °C 46.9 °F /  8.3 °C 29.73in /  1006.7hPa WSW 0.2mph /  0.3km/h 4mph /  6.4km/h 90% 0.01in /  0.25mm 67 W/m2
12:14 49.7 °F /  9.8 °C 46.9 °F /  8.3 °C 29.73in /  1006.7hPa Calm   4mph /  6.4km/h 90.1% 0.01in /  0.25mm 88 W/m2
12:19 49.8 °F /  9.9 °C 47.2 °F /  8.4 °C 29.72in /  1006.3hPa WSW 0.5mph /  0.8km/h 4mph /  6.4km/h 91% 0.01in /  0.25mm 86 W/m2
12:24 49.8 °F /  9.9 °C 47.3 °F /  8.5 °C 29.72in /  1006.3hPa WSW 0.2mph /  0.3km/h 4mph /  6.4km/h 91% 0.01in /  0.25mm 86 W/m2
12:29 49.8 °F /  9.9 °C 47.3 °F /  8.5 °C 29.72in /  1006.3hPa WSW 0.8mph /  1.3km/h 5mph /  8km/h 91% 0.01in /  0.25mm 81 W/m2
12:34 49.9 °F /  9.9 °C 47.6 °F /  8.7 °C 29.72in /  1006.3hPa WSW 0.5mph /  0.8km/h 6mph /  9.7km/h 91.6% 0.01in /  0.25mm 118 W/m2
12:39 49.9 °F /  9.9 °C 47.7 °F /  8.7 °C 29.71in /  1006hPa SW 1.5mph /  2.4km/h 6mph /  9.7km/h 92% 0.01in /  0.25mm 149 W/m2
12:44 50 °F /  10 °C 47.7 °F /  8.7 °C 29.71in /  1006hPa SW 2mph /  3.2km/h 6mph /  9.7km/h 92% 0.01in /  0.25mm 155 W/m2
12:49 50.1 °F /  10.1 °C 47.9 °F /  8.8 °C 29.71in /  1006hPa SW 1mph /  1.6km/h 9mph /  14.5km/h 92% 0.01in /  0.25mm 156 W/m2
12:54 50.4 °F /  10.2 °C 48.1 °F /  8.9 °C 29.70in /  1005.6hPa WSW 2mph /  3.2km/h 12mph /  19.3km/h 92% 0.01in /  0.25mm 160 W/m2
12:59 50.5 °F /  10.3 °C 48.3 °F /  9.1 °C 29.70in /  1005.6hPa WSW 0.9mph /  1.4km/h 12mph /  19.3km/h 92% 0.01in /  0.25mm 132 W/m2
13:04 50.6 °F /  10.3 °C 48.3 °F /  9.1 °C 29.69in /  1005.3hPa WSW 1.9mph /  3.1km/h 12mph /  19.3km/h 91.7% 0.01in /  0.25mm 139 W/m2
13:09 50.8 °F /  10.4 °C 48.4 °F /  9.1 °C 29.69in /  1005.3hPa WSW 2.4mph /  3.9km/h 9mph /  14.5km/h 91.5% 0.00in /  0mm 142 W/m2
13:14 50.9 °F /  10.5 °C 48.3 °F /  9.1 °C 29.69in /  1005.3hPa SW 4.1mph /  6.6km/h 14mph /  22.5km/h 90.7% 0.00in /  0mm 156 W/m2
13:19 51 °F /  10.6 °C 48.1 °F /  8.9 °C 29.68in /  1005hPa WSW 2.1mph /  3.4km/h 14mph /  22.5km/h 90% 0.00in /  0mm 155 W/m2
13:24 51.2 °F /  10.7 °C 48.1 °F /  8.9 °C 29.68in /  1005hPa WSW 2.9mph /  4.7km/h 14mph /  22.5km/h 89.4% 0.00in /  0mm 141 W/m2
13:29 51.2 °F /  10.7 °C 47.9 °F /  8.8 °C 29.68in /  1005hPa West 1.8mph /  2.9km/h 14mph /  22.5km/h 88.3% 0.00in /  0mm 123 W/m2
13:34 51.3 °F /  10.7 °C 47.7 °F /  8.7 °C 29.68in /  1005hPa WSW 3.2mph /  5.1km/h 14mph /  22.5km/h 87.6% 0.00in /  0mm 104 W/m2
13:39 51.3 °F /  10.7 °C 47.4 °F /  8.6 °C 29.68in /  1005hPa WSW 4.2mph /  6.8km/h 14mph /  22.5km/h 86.3% 0.00in /  0mm 128 W/m2
13:44 51.4 °F /  10.8 °C 47.3 °F /  8.5 °C 29.68in /  1005hPa WSW 4mph /  6.4km/h 16mph /  25.7km/h 86% 0.00in /  0mm 109 W/m2
13:49 51.5 °F /  10.8 °C 47.4 °F /  8.6 °C 29.68in /  1005hPa WSW 3.3mph /  5.3km/h 16mph /  25.7km/h 85.7% 0.00in /  0mm 123 W/m2
13:54 51.5 °F /  10.8 °C 47.2 °F /  8.4 °C 29.68in /  1005hPa West 4.7mph /  7.6km/h 22mph /  35.4km/h 85% 0.00in /  0mm 123 W/m2
13:59 51.6 °F /  10.9 °C 47 °F /  8.3 °C 29.68in /  1005hPa West 5.2mph /  8.4km/h 22mph /  35.4km/h 84.1% 0.00in /  0mm 109 W/m2
14:04 51.7 °F /  10.9 °C 47 °F /  8.3 °C 29.68in /  1005hPa West 2.6mph /  4.2km/h 22mph /  35.4km/h 83.8% 0.00in /  0mm 105 W/m2
14:09 51.8 °F /  11 °C 46.8 °F /  8.2 °C 29.68in /  1005hPa WSW 3.3mph /  5.3km/h 13mph /  20.9km/h 83% 0.00in /  0mm 84 W/m2
14:14 51.8 °F /  11 °C 46.8 °F /  8.2 °C 29.68in /  1005hPa WSW 2.1mph /  3.4km/h 13mph /  20.9km/h 83% 0.00in /  0mm 107 W/m2
14:19 51.8 °F /  11 °C 46.6 °F /  8.1 °C 29.68in /  1005hPa WSW 1.6mph /  2.6km/h 13mph /  20.9km/h 82.3% 0.00in /  0mm 107 W/m2
14:24 51.9 °F /  11.1 °C 46.6 °F /  8.1 °C 29.68in /  1005hPa West 3.6mph /  5.8km/h 13mph /  20.9km/h 82% 0.00in /  0mm 98 W/m2
14:29 51.9 °F /  11.1 °C 46.4 °F /  8 °C 29.68in /  1005hPa West 3.4mph /  5.5km/h 14mph /  22.5km/h 81.4% 0.00in /  0mm 93 W/m2
14:34 52 °F /  11.1 °C 46.4 °F /  8 °C 29.68in /  1005hPa West 0.8mph /  1.3km/h 14mph /  22.5km/h 81% 0.00in /  0mm 102 W/m2
14:39 52.1 °F /  11.2 °C 46.6 °F /  8.1 °C 29.68in /  1005hPa West 0.9mph /  1.4km/h 9mph /  14.5km/h 81.4% 0.00in /  0mm 98 W/m2
14:44 52.2 °F /  11.2 °C 46.5 °F /  8.1 °C 29.68in /  1005hPa WSW 2.5mph /  4km/h 11mph /  17.7km/h 81% 0.00in /  0mm 60 W/m2
14:49 52.2 °F /  11.2 °C 46.2 °F /  7.9 °C 29.68in /  1005hPa West 1.6mph /  2.6km/h 11mph /  17.7km/h 80% 0.00in /  0mm 42 W/m2
14:54 52.2 °F /  11.2 °C 46.2 °F /  7.9 °C 29.68in /  1005hPa West 3.8mph /  6.1km/h 12mph /  19.3km/h 80% 0.00in /  0mm 56 W/m2
14:59 52.2 °F /  11.2 °C 46.2 °F /  7.9 °C 29.67in /  1004.6hPa WSW 1.1mph /  1.8km/h 12mph /  19.3km/h 80% 0.00in /  0mm 33 W/m2
15:04 52.2 °F /  11.2 °C 46.3 °F /  7.9 °C 29.67in /  1004.6hPa WSW 1mph /  1.6km/h 12mph /  19.3km/h 80% 0.00in /  0mm 26 W/m2
15:09 52.2 °F /  11.2 °C 46.1 °F /  7.8 °C 29.68in /  1005hPa SW 2.1mph /  3.4km/h 14mph /  22.5km/h 79.6% 0.00in /  0mm 53 W/m2
15:14 52.1 °F /  11.2 °C 46.1 °F /  7.8 °C 29.68in /  1005hPa West 2.5mph /  4km/h 14mph /  22.5km/h 79.7% 0.00in /  0mm 51 W/m2
15:19 52.1 °F /  11.2 °C 45.8 °F /  7.7 °C 29.68in /  1005hPa West 1.8mph /  2.9km/h 14mph /  22.5km/h 79.1% 0.00in /  0mm 32 W/m2
15:24 52 °F /  11.1 °C 45.7 °F /  7.6 °C 29.68in /  1005hPa WNW 0.5mph /  0.8km/h 14mph /  22.5km/h 79% 0.00in /  0mm 32 W/m2
15:29 51.9 °F /  11.1 °C 45.8 °F /  7.7 °C 29.68in /  1005hPa WNW 0.9mph /  1.4km/h 14mph /  22.5km/h 79.5% 0.00in /  0mm 28 W/m2
15:34 51.8 °F /  11 °C 45.9 °F /  7.7 °C 29.68in /  1005hPa WSW 2mph /  3.2km/h 14mph /  22.5km/h 80% 0.00in /  0mm 21 W/m2
15:37 51.7 °F /  10.9 °C 45.8 °F /  7.7 °C 29.68in /  1005hPa WSW 3mph /  4.8km/h 10mph /  16.1km/h 80% 0.00in /  0mm 12 W/m2
16:09 50.8 °F /  10.4 °C 45 °F /  7.2 °C 29.69in /  1005.3hPa WNW 2.2mph /  3.5km/h 7mph /  11.3km/h 80.2% 0.00in /  0mm 23 W/m2
16:14 50.9 °F /  10.5 °C 45 °F /  7.2 °C 29.69in /  1005.3hPa WNW 5.7mph /  9.2km/h 13mph /  20.9km/h 80% 0.00in /  0mm 16 W/m2
16:19 51 °F /  10.6 °C 45 °F /  7.2 °C 29.70in /  1005.6hPa WNW 8.7mph /  14km/h 18mph /  29km/h 79.8% 0.00in /  0mm 5 W/m2
16:24 51 °F /  10.6 °C 44.7 °F /  7.1 °C 29.70in /  1005.6hPa NW 9.2mph /  14.8km/h 18mph /  29km/h 79% 0.00in /  0mm 0 W/m2
16:29 50.9 °F /  10.5 °C 44.3 °F /  6.8 °C 29.70in /  1005.6hPa NW 7.9mph /  12.7km/h 22mph /  35.4km/h 78% 0.00in /  0mm 0 W/m2
16:34 50.6 °F /  10.3 °C 43.8 °F /  6.6 °C 29.71in /  1006hPa NW 9mph /  14.5km/h 22mph /  35.4km/h 77.3% 0.00in /  0mm 0 W/m2
16:39 50.4 °F /  10.2 °C 43.8 °F /  6.6 °C 29.71in /  1006hPa NW 7.9mph /  12.7km/h 21mph /  33.8km/h 78% 0.00in /  0mm 0 W/m2
16:44 50.2 °F /  10.1 °C 44 °F /  6.7 °C 29.73in /  1006.7hPa NW 8.9mph /  14.3km/h 27mph /  43.5km/h 79.1% 0.00in /  0mm 0 W/m2
16:49 49.8 °F /  9.9 °C 43.6 °F /  6.4 °C 29.73in /  1006.7hPa NW 12.5mph /  20.1km/h 30mph /  48.3km/h 79% 0.00in /  0mm 0 W/m2
16:54 49.1 °F /  9.5 °C 42.1 °F /  5.6 °C 29.73in /  1006.7hPa NW 13.4mph /  21.6km/h 31mph /  49.9km/h 76.5% 0.00in /  0mm 0 W/m2
16:59 48.5 °F /  9.2 °C 40.7 °F /  4.8 °C 29.73in /  1006.7hPa WNW 11.4mph /  18.3km/h 31mph /  49.9km/h 74.2% 0.00in /  0mm 0 W/m2
17:04 48.1 °F /  8.9 °C 39.6 °F /  4.2 °C 29.73in /  1006.7hPa WNW 13.6mph /  21.9km/h 31mph /  49.9km/h 72.1% 0.00in /  0mm 0 W/m2
17:09 47.8 °F /  8.8 °C 38.8 °F /  3.8 °C 29.73in /  1006.7hPa WNW 12.8mph /  20.6km/h 26mph /  41.8km/h 70.7% 0.00in /  0mm 0 W/m2
17:14 47.6 °F /  8.7 °C 38.3 °F /  3.5 °C 29.73in /  1006.7hPa WNW 13mph /  20.9km/h 26mph /  41.8km/h 69.8% 0.00in /  0mm 0 W/m2
17:19 47.5 °F /  8.6 °C 37.6 °F /  3.1 °C 29.72in /  1006.3hPa WNW 13.6mph /  21.9km/h 26mph /  41.8km/h 68.4% 0.00in /  0mm 0 W/m2
17:24 47.4 °F /  8.6 °C 37 °F /  2.8 °C 29.72in /  1006.3hPa WNW 17.3mph /  27.8km/h 29mph /  46.7km/h 67% 0.00in /  0mm 0 W/m2
17:29 47.5 °F /  8.6 °C 36.5 °F /  2.5 °C 29.73in /  1006.7hPa WNW 15.1mph /  24.3km/h 29mph /  46.7km/h 65.4% 0.00in /  0mm 0 W/m2
17:34 47.6 °F /  8.7 °C 35.7 °F /  2.1 °C 29.72in /  1006.3hPa WNW 13.2mph /  21.2km/h 29mph /  46.7km/h 63.1% 0.00in /  0mm 0 W/m2
17:39 47.6 °F /  8.7 °C 35.6 °F /  2 °C 29.73in /  1006.7hPa WNW 9.8mph /  15.8km/h 25mph /  40.2km/h 63% 0.00in /  0mm 0 W/m2
17:44 47.5 °F /  8.6 °C 35.5 °F /  1.9 °C 29.73in /  1006.7hPa WNW 10.6mph /  17.1km/h 25mph /  40.2km/h 63% 0.00in /  0mm 0 W/m2
17:49 47.3 °F /  8.5 °C 35.4 °F /  1.9 °C 29.73in /  1006.7hPa NW 7mph /  11.3km/h 25mph /  40.2km/h 63.1% 0.00in /  0mm 0 W/m2
17:54 47.1 °F /  8.4 °C 35.6 °F /  2 °C 29.73in /  1006.7hPa NW 8.1mph /  13km/h 25mph /  40.2km/h 64% 0.00in /  0mm 0 W/m2
17:59 47 °F /  8.3 °C 35.5 °F /  1.9 °C 29.73in /  1006.7hPa WNW 6.9mph /  11.1km/h 25mph /  40.2km/h 64% 0.00in /  0mm 0 W/m2
18:04 46.9 °F /  8.3 °C 35.4 °F /  1.9 °C 29.73in /  1006.7hPa WNW 8.7mph /  14km/h 25mph /  40.2km/h 64% 0.00in /  0mm 0 W/m2
18:09 46.8 °F /  8.2 °C 35.3 °F /  1.8 °C 29.73in /  1006.7hPa WNW 8.4mph /  13.5km/h 23mph /  37km/h 64% 0.00in /  0mm 0 W/m2
18:14 46.8 °F /  8.2 °C 35.4 °F /  1.9 °C 29.73in /  1006.7hPa NW 6.8mph /  10.9km/h 23mph /  37km/h 64.3% 0.00in /  0mm 0 W/m2
18:19 46.7 °F /  8.2 °C 35.6 °F /  2 °C 29.74in /  1007hPa WNW 3.8mph /  6.1km/h 23mph /  37km/h 65% 0.00in /  0mm 0 W/m2
18:24 46.7 °F /  8.2 °C 35.5 °F /  1.9 °C 29.74in /  1007hPa WNW 7.4mph /  11.9km/h 23mph /  37km/h 65% 0.00in /  0mm 0 W/m2
18:29 46.6 °F /  8.1 °C 35.5 °F /  1.9 °C 29.74in /  1007hPa WNW 5.1mph /  8.2km/h 23mph /  37km/h 65% 0.00in /  0mm 0 W/m2
18:34 46.5 °F /  8.1 °C 35.4 °F /  1.9 °C 29.74in /  1007hPa WNW 1.2mph /  1.9km/h 23mph /  37km/h 65% 0.00in /  0mm 0 W/m2
18:39 46.4 °F /  8 °C 35.6 °F /  2 °C 29.74in /  1007hPa WNW 6.3mph /  10.1km/h 15mph /  24.1km/h 65.8% 0.00in /  0mm 0 W/m2
18:44 46.3 °F /  7.9 °C 35.5 °F /  1.9 °C 29.74in /  1007hPa NW 5.2mph /  8.4km/h 15mph /  24.1km/h 65.7% 0.00in /  0mm 0 W/m2
18:49 46.3 °F /  7.9 °C 35.2 °F /  1.8 °C 29.74in /  1007hPa WNW 5.5mph /  8.9km/h 15mph /  24.1km/h 65% 0.00in /  0mm 0 W/m2
18:54 46.3 °F /  7.9 °C 35.2 °F /  1.8 °C 29.75in /  1007.3hPa WNW 7.7mph /  12.4km/h 16mph /  25.7km/h 65% 0.00in /  0mm 0 W/m2
18:59 46.3 °F /  7.9 °C 35.2 °F /  1.8 °C 29.75in /  1007.3hPa NW 7.9mph /  12.7km/h 16mph /  25.7km/h 65% 0.00in /  0mm 0 W/m2
19:04 46.2 °F /  7.9 °C 35.1 °F /  1.7 °C 29.75in /  1007.3hPa WNW 9.2mph /  14.8km/h 21mph /  33.8km/h 65% 0.00in /  0mm 0 W/m2
19:09 46.2 °F /  7.9 °C 35.1 °F /  1.7 °C 29.75in /  1007.3hPa WNW 6.4mph /  10.3km/h 21mph /  33.8km/h 65% 0.00in /  0mm 0 W/m2
19:14 46.1 °F /  7.8 °C 35 °F /  1.7 °C 29.75in /  1007.3hPa NW 9mph /  14.5km/h 21mph /  33.8km/h 65% 0.00in /  0mm 0 W/m2
19:19 46.1 °F /  7.8 °C 35 °F /  1.7 °C 29.75in /  1007.3hPa NW 8.3mph /  13.4km/h 21mph /  33.8km/h 65% 0.00in /  0mm 0 W/m2
19:24 46.1 °F /  7.8 °C 35 °F /  1.7 °C 29.75in /  1007.3hPa NW 8.4mph /  13.5km/h 23mph /  37km/h 65% 0.00in /  0mm 0 W/m2
19:29 46.1 °F /  7.8 °C 35 °F /  1.7 °C 29.76in /  1007.7hPa WNW 10mph /  16.1km/h 23mph /  37km/h 65% 0.00in /  0mm 0 W/m2
19:34 46.1 °F /  7.8 °C 34.9 °F /  1.6 °C 29.76in /  1007.7hPa WNW 10.1mph /  16.3km/h 23mph /  37km/h 64.7% 0.00in /  0mm 0 W/m2
19:39 46.2 °F /  7.9 °C 35.1 °F /  1.7 °C 29.76in /  1007.7hPa NW 6.5mph /  10.5km/h 23mph /  37km/h 65% 0.00in /  0mm 0 W/m2
19:44 46.3 °F /  7.9 °C 35.1 °F /  1.7 °C 29.76in /  1007.7hPa WNW 9mph /  14.5km/h 23mph /  37km/h 64.6% 0.00in /  0mm 0 W/m2
19:49 46.4 °F /  8 °C 35 °F /  1.7 °C 29.76in /  1007.7hPa NW 7.6mph /  12.2km/h 23mph /  37km/h 64.3% 0.00in /  0mm 0 W/m2
19:54 46.4 °F /  8 °C 34.9 °F /  1.6 °C 29.76in /  1007.7hPa WNW 8.8mph /  14.2km/h 23mph /  37km/h 64% 0.00in /  0mm 0 W/m2
19:59 46.5 °F /  8.1 °C 35 °F /  1.7 °C 29.76in /  1007.7hPa NW 6.4mph /  10.3km/h 23mph /  37km/h 64% 0.00in /  0mm 0 W/m2
20:09 46.5 °F /  8.1 °C 35.4 °F /  1.9 °C 29.77in /  1008hPa NW 5.3mph /  8.5km/h 12mph /  19.3km/h 65.2% 0.00in /  0mm 0 W/m2
20:14 46.4 °F /  8 °C 35.9 °F /  2.2 °C 29.78in /  1008.4hPa NW 7.6mph /  12.2km/h 14mph /  22.5km/h 66.5% 0.00in /  0mm 0 W/m2
20:19 46.1 °F /  7.8 °C 37 °F /  2.8 °C 29.78in /  1008.4hPa NW 8.3mph /  13.4km/h 24mph /  38.6km/h 70.3% 0.00in /  0mm 0 W/m2
20:24 45.5 °F /  7.5 °C 37.4 °F /  3 °C 29.78in /  1008.4hPa NW 6mph /  9.7km/h 24mph /  38.6km/h 73.1% 0.00in /  0mm 0 W/m2
20:29 45 °F /  7.2 °C 37.5 °F /  3.1 °C 29.78in /  1008.4hPa NW 1.1mph /  1.8km/h 24mph /  38.6km/h 74.9% 0.00in /  0mm 0 W/m2
20:34 44.6 °F /  7 °C 37.5 °F /  3.1 °C 29.79in /  1008.7hPa NW 7mph /  11.3km/h 24mph /  38.6km/h 76% 0.00in /  0mm 0 W/m2
20:39 44.1 °F /  6.7 °C 37.3 °F /  2.9 °C 29.79in /  1008.7hPa WNW 8.8mph /  14.2km/h 19mph /  30.6km/h 76.8% 0.01in /  0.25mm 0 W/m2
20:44 43.7 °F /  6.5 °C 37.1 °F /  2.8 °C 29.79in /  1008.7hPa NW 9.6mph /  15.4km/h 19mph /  30.6km/h 77.5% 0.01in /  0.25mm 0 W/m2
20:49 43.3 °F /  6.3 °C 36.6 °F /  2.6 °C 29.78in /  1008.4hPa NW 8.7mph /  14km/h 19mph /  30.6km/h 77% 0.01in /  0.25mm 0 W/m2
20:54 43.2 °F /  6.2 °C 36.2 °F /  2.3 °C 29.78in /  1008.4hPa NW 10.2mph /  16.4km/h 21mph /  33.8km/h 76.1% 0.01in /  0.25mm 0 W/m2
20:59 43.2 °F /  6.2 °C 35.8 °F /  2.1 °C 29.79in /  1008.7hPa WNW 10.9mph /  17.5km/h 21mph /  33.8km/h 75.1% 0.01in /  0.25mm 0 W/m2
21:04 43.2 °F /  6.2 °C 35.5 °F /  1.9 °C 29.79in /  1008.7hPa WNW 10.3mph /  16.6km/h 21mph /  33.8km/h 74% 0.01in /  0.25mm 0 W/m2
21:09 43.2 °F /  6.2 °C 35 °F /  1.7 °C 29.79in /  1008.7hPa WNW 12.1mph /  19.5km/h 23mph /  37km/h 72.7% 0.01in /  0.25mm 0 W/m2
21:14 43.3 °F /  6.3 °C 34.2 °F /  1.2 °C 29.79in /  1008.7hPa WNW 11.9mph /  19.2km/h 29mph /  46.7km/h 70.1% 0.01in /  0.25mm 0 W/m2
21:19 43.4 °F /  6.3 °C 33.8 °F /  1 °C 29.80in /  1009hPa NW 11.2mph /  18km/h 29mph /  46.7km/h 68.7% 0.01in /  0.25mm 0 W/m2
21:24 43.4 °F /  6.3 °C 33.5 °F /  0.8 °C 29.79in /  1008.7hPa WNW 12.8mph /  20.6km/h 29mph /  46.7km/h 67.8% 0.01in /  0.25mm 0 W/m2
21:29 43.4 °F /  6.3 °C 33.5 °F /  0.8 °C 29.79in /  1008.7hPa WNW 10.5mph /  16.9km/h 29mph /  46.7km/h 67.7% 0.01in /  0.25mm 0 W/m2
21:34 43.4 °F /  6.3 °C 33.2 °F /  0.7 °C 29.79in /  1008.7hPa WNW 11.8mph /  19km/h 29mph /  46.7km/h 67% 0.01in /  0.25mm 0 W/m2
21:39 43.3 °F /  6.3 °C 33.1 °F /  0.6 °C 29.79in /  1008.7hPa NW 8.1mph /  13km/h 22mph /  35.4km/h 67% 0.01in /  0.25mm 0 W/m2
21:44 43.2 °F /  6.2 °C 32.9 °F /  0.5 °C 29.79in /  1008.7hPa NW 8.9mph /  14.3km/h 22mph /  35.4km/h 66.7% 0.01in /  0.25mm 0 W/m2
21:49 43.2 °F /  6.2 °C 32.7 °F /  0.4 °C 29.79in /  1008.7hPa WNW 8.8mph /  14.2km/h 25mph /  40.2km/h 66.4% 0.01in /  0.25mm 0 W/m2
21:54 43.1 °F /  6.2 °C 32.7 °F /  0.4 °C 29.80in /  1009hPa NW 4mph /  6.4km/h 25mph /  40.2km/h 66.6% 0.01in /  0.25mm 0 W/m2
21:59 42.9 °F /  6.1 °C 32.5 °F /  0.3 °C 29.80in /  1009hPa WNW 8.3mph /  13.4km/h 25mph /  40.2km/h 66.6% 0.01in /  0.25mm 0 W/m2
22:04 42.8 °F /  6 °C 32.3 °F /  0.2 °C 29.80in /  1009hPa NW 6.4mph /  10.3km/h 25mph /  40.2km/h 66.2% 0.01in /  0.25mm 0 W/m2
22:09 42.7 °F /  5.9 °C 32.5 °F /  0.3 °C 29.81in /  1009.4hPa NW 3.9mph /  6.3km/h 17mph /  27.4km/h 67% 0.00in /  0mm 0 W/m2
22:14 42.5 °F /  5.8 °C 32.2 °F /  0.1 °C 29.80in /  1009hPa NW 7mph /  11.3km/h 17mph /  27.4km/h 66.7% 0.00in /  0mm 0 W/m2
22:19 42.5 °F /  5.8 °C 32 °F /  0 °C 29.81in /  1009.4hPa WNW 5.8mph /  9.3km/h 17mph /  27.4km/h 66% 0.00in /  0mm 0 W/m2
22:24 42.6 °F /  5.9 °C 32 °F /  0 °C 29.81in /  1009.4hPa WNW 6.8mph /  10.9km/h 17mph /  27.4km/h 66% 0.00in /  0mm 0 W/m2
22:29 42.6 °F /  5.9 °C 31.8 °F /  -0.1 °C 29.81in /  1009.4hPa WNW 5.4mph /  8.7km/h 17mph /  27.4km/h 65.4% 0.00in /  0mm 0 W/m2
22:34 42.7 °F /  5.9 °C 31.7 °F /  -0.2 °C 29.82in /  1009.7hPa WNW 2.7mph /  4.3km/h 17mph /  27.4km/h 65% 0.00in /  0mm 0 W/m2
22:39 42.7 °F /  5.9 °C 31.8 °F /  -0.1 °C 29.82in /  1009.7hPa NW 6mph /  9.7km/h 15mph /  24.1km/h 65% 0.00in /  0mm 0 W/m2
22:44 42.9 °F /  6.1 °C 31.7 °F /  -0.2 °C 29.82in /  1009.7hPa WNW 8.2mph /  13.2km/h 16mph /  25.7km/h 64.3% 0.00in /  0mm 0 W/m2
22:49 43.1 °F /  6.2 °C 31.8 °F /  -0.1 °C 29.82in /  1009.7hPa WNW 6.6mph /  10.6km/h 18mph /  29km/h 64% 0.00in /  0mm 0 W/m2
22:54 43.2 °F /  6.2 °C 31.5 °F /  -0.3 °C 29.82in /  1009.7hPa NW 5.8mph /  9.3km/h 20mph /  32.2km/h 63% 0.00in /  0mm 0 W/m2
22:59 43.4 °F /  6.3 °C 31.2 °F /  -0.4 °C 29.83in /  1010hPa WNW 10.4mph /  16.7km/h 20mph /  32.2km/h 61.8% 0.00in /  0mm 0 W/m2
23:00 43.5 °F /  6.4 °C 31.4 °F /  -0.3 °C 29.82in /  1009.7hPa WSW 5mph /  8km/h 20mph /  32.2km/h 62% 0.00in /  0mm 0 W/m2
23:09 43.5 °F /  6.4 °C 31 °F /  -0.6 °C 29.82in /  1009.7hPa WNW 9mph /  14.5km/h 19mph /  30.6km/h 61% 0.00in /  0mm 0 W/m2
23:14 43.5 °F /  6.4 °C 31 °F /  -0.6 °C 29.82in /  1009.7hPa NW 9.4mph /  15.1km/h 20mph /  32.2km/h 61% 0.00in /  0mm 0 W/m2
23:19 43.5 °F /  6.4 °C 30.9 °F /  -0.6 °C 29.83in /  1010hPa NW 9.2mph /  14.8km/h 23mph /  37km/h 61% 0.00in /  0mm 0 W/m2
23:24 43.4 °F /  6.3 °C 30.9 °F /  -0.6 °C 29.83in /  1010hPa WNW 6.4mph /  10.3km/h 23mph /  37km/h 61% 0.00in /  0mm 0 W/m2
23:29 43.3 °F /  6.3 °C 30.8 °F /  -0.7 °C 29.83in /  1010hPa WNW 5.3mph /  8.5km/h 23mph /  37km/h 61% 0.00in /  0mm 0 W/m2
23:34 43.2 °F /  6.2 °C 30.7 °F /  -0.7 °C 29.83in /  1010hPa NW 6.5mph /  10.5km/h 23mph /  37km/h 61% 0.00in /  0mm 0 W/m2
23:39 43.1 °F /  6.2 °C 30.6 °F /  -0.8 °C 29.83in /  1010hPa NW 10mph /  16.1km/h 20mph /  32.2km/h 61% 0.00in /  0mm 0 W/m2
23:44 43.1 °F /  6.2 °C 30.6 °F /  -0.8 °C 29.83in /  1010hPa NW 6.9mph /  11.1km/h 20mph /  32.2km/h 61% 0.00in /  0mm 0 W/m2
23:49 43 °F /  6.1 °C 30.5 °F /  -0.8 °C 29.83in /  1010hPa NW 7.4mph /  11.9km/h 20mph /  32.2km/h 61% 0.00in /  0mm 0 W/m2
23:54 43 °F /  6.1 °C 30.5 °F /  -0.8 °C 29.84in /  1010.4hPa NW 5.3mph /  8.5km/h 20mph /  32.2km/h 61% 0.00in /  0mm 0 W/m2
23:59 43 °F /  6.1 °C 30.5 °F /  -0.8 °C 29.84in /  1010.4hPa WNW 7.9mph /  12.7km/h 21mph /  33.8km/h 61% 0.00in /  0mm 0 W/m2
Hartford County Weather
Compliments of Weather Underground - 2 mb